sensor_id;sensor_type;location;lat;lon;timestamp;pressure;altitude;pressure_sealevel;temperature;humidity
53550;BME280;67273;52.914;-0.982;2023-05-18T00:02:16;102459.56;;;19.37;48.78
53550;BME280;67273;52.914;-0.982;2023-05-18T00:04:42;102460.59;;;19.36;48.79
53550;BME280;67273;52.914;-0.982;2023-05-18T00:07:08;102457.88;;;19.36;48.75
53550;BME280;67273;52.914;-0.982;2023-05-18T00:09:35;102457.88;;;19.36;48.69
53550;BME280;67273;52.914;-0.982;2023-05-18T00:12:03;102459.75;;;19.35;49.11
53550;BME280;67273;52.914;-0.982;2023-05-18T00:14:29;102456.19;;;19.35;48.75
53550;BME280;67273;52.914;-0.982;2023-05-18T00:16:55;102453.47;;;19.35;48.52
53550;BME280;67273;52.914;-0.982;2023-05-18T00:19:22;102458.94;;;19.35;48.68
53550;BME280;67273;52.914;-0.982;2023-05-18T00:21:49;102454.50;;;19.34;48.85
53550;BME280;67273;52.914;-0.982;2023-05-18T00:24:16;102447.38;;;19.33;48.70
53550;BME280;67273;52.914;-0.982;2023-05-18T00:26:43;102451.78;;;19.34;48.74
53550;BME280;67273;52.914;-0.982;2023-05-18T00:29:09;102448.22;;;19.33;48.81
53550;BME280;67273;52.914;-0.982;2023-05-18T00:31:36;102450.94;;;19.33;48.71
53550;BME280;67273;52.914;-0.982;2023-05-18T00:34:05;102444.66;;;19.33;48.84
53550;BME280;67273;52.914;-0.982;2023-05-18T00:36:33;102446.53;;;19.32;48.78
53550;BME280;67273;52.914;-0.982;2023-05-18T00:38:59;102449.25;;;19.32;48.77
53550;BME280;67273;52.914;-0.982;2023-05-18T00:41:26;102443.78;;;19.32;48.72
53550;BME280;67273;52.914;-0.982;2023-05-18T00:43:52;102440.25;;;19.32;48.81
53550;BME280;67273;52.914;-0.982;2023-05-18T00:46:18;102440.25;;;19.32;48.84
53550;BME280;67273;52.914;-0.982;2023-05-18T00:48:44;102449.44;;;19.31;48.72
53550;BME280;67273;52.914;-0.982;2023-05-18T00:51:11;102452.16;;;19.31;48.82
53550;BME280;67273;52.914;-0.982;2023-05-18T00:53:38;102445.88;;;19.30;48.69
53550;BME280;67273;52.914;-0.982;2023-05-18T00:56:04;102445.06;;;19.30;48.79
53550;BME280;67273;52.914;-0.982;2023-05-18T00:58:30;102452.16;;;19.31;48.85
53550;BME280;67273;52.914;-0.982;2023-05-18T01:00:56;102437.91;;;19.29;48.85
53550;BME280;67273;52.914;-0.982;2023-05-18T01:03:22;102444.22;;;19.29;48.79
53550;BME280;67273;52.914;-0.982;2023-05-18T01:05:49;102451.53;;;19.29;48.78
53550;BME280;67273;52.914;-0.982;2023-05-18T01:08:21;102449.66;;;19.29;48.78
53550;BME280;67273;52.914;-0.982;2023-05-18T01:10:50;102454.25;;;19.29;48.68
53550;BME280;67273;52.914;-0.982;2023-05-18T01:13:22;102446.09;;;19.29;48.80
53550;BME280;67273;52.914;-0.982;2023-05-18T01:15:56;102448.81;;;19.29;48.79
53550;BME280;67273;52.914;-0.982;2023-05-18T01:18:30;102455.31;;;19.28;48.90
53550;BME280;67273;52.914;-0.982;2023-05-18T01:20:59;102446.28;;;19.27;48.75
53550;BME280;67273;52.914;-0.982;2023-05-18T01:23:44;102448.16;;;19.27;48.77
53550;BME280;67273;52.914;-0.982;2023-05-18T01:26:14;102448.16;;;19.27;48.74
53550;BME280;67273;52.914;-0.982;2023-05-18T01:28:43;102456.34;;;19.27;48.84
53550;BME280;67273;52.914;-0.982;2023-05-18T01:31:11;102453.63;;;19.27;48.85
53550;BME280;67273;52.914;-0.982;2023-05-18T01:33:36;102454.66;;;19.26;48.86
53550;BME280;67273;52.914;-0.982;2023-05-18T01:36:03;102461.78;;;19.27;48.83
53550;BME280;67273;52.914;-0.982;2023-05-18T01:38:30;102454.66;;;19.26;48.78
53550;BME280;67273;52.914;-0.982;2023-05-18T01:41:02;102452.97;;;19.25;49.17
53550;BME280;67273;52.914;-0.982;2023-05-18T01:43:39;102449.19;;;19.26;48.86
53550;BME280;67273;52.914;-0.982;2023-05-18T01:46:12;102452.97;;;19.25;48.95
53550;BME280;67273;52.914;-0.982;2023-05-18T01:48:50;102447.53;;;19.25;48.91
53550;BME280;67273;52.914;-0.982;2023-05-18T01:51:19;102451.28;;;19.24;48.89
53550;BME280;67273;52.914;-0.982;2023-05-18T01:53:53;102448.75;;;19.22;48.93
53550;BME280;67273;52.914;-0.982;2023-05-18T01:56:21;102451.28;;;19.24;48.74
53550;BME280;67273;52.914;-0.982;2023-05-18T01:58:49;102457.78;;;19.23;48.82
53550;BME280;67273;52.914;-0.982;2023-05-18T02:01:17;102455.91;;;19.23;48.81
53550;BME280;67273;52.914;-0.982;2023-05-18T02:03:44;102448.75;;;19.22;48.81
53550;BME280;67273;52.914;-0.982;2023-05-18T02:06:10;102455.06;;;19.23;48.95
53550;BME280;67273;52.914;-0.982;2023-05-18T02:08:37;102456.09;;;19.22;48.95
53550;BME280;67273;52.914;-0.982;2023-05-18T02:11:03;102450.66;;;19.22;48.76
53550;BME280;67273;52.914;-0.982;2023-05-18T02:13:29;102448.97;;;19.21;48.92
53550;BME280;67273;52.914;-0.982;2023-05-18T02:15:56;102452.53;;;19.21;48.96
53550;BME280;67273;52.914;-0.982;2023-05-18T02:18:22;102444.38;;;19.21;48.92
53550;BME280;67273;52.914;-0.982;2023-05-18T02:20:48;102449.81;;;19.21;48.87
53550;BME280;67273;52.914;-0.982;2023-05-18T02:23:14;102449.81;;;19.21;48.92
53550;BME280;67273;52.914;-0.982;2023-05-18T02:25:40;102457.16;;;19.21;48.90
53550;BME280;67273;52.914;-0.982;2023-05-18T02:28:09;102462.59;;;19.21;48.88
53550;BME280;67273;52.914;-0.982;2023-05-18T02:30:35;102460.91;;;19.19;48.90
53550;BME280;67273;52.914;-0.982;2023-05-18T02:33:03;102466.34;;;19.19;48.94
53550;BME280;67273;52.914;-0.982;2023-05-18T02:35:29;102467.19;;;19.20;48.95
53550;BME280;67273;52.914;-0.982;2023-05-18T02:37:55;102464.66;;;19.18;48.95
53550;BME280;67273;52.914;-0.982;2023-05-18T02:40:22;102459.22;;;19.18;48.94
53550;BME280;67273;52.914;-0.982;2023-05-18T02:42:48;102469.28;;;19.18;48.85
53550;BME280;67273;52.914;-0.982;2023-05-18T02:45:14;102458.38;;;19.18;48.88
53550;BME280;67273;52.914;-0.982;2023-05-18T02:47:43;102465.72;;;19.17;48.82
53550;BME280;67273;52.914;-0.982;2023-05-18T02:50:11;102463.00;;;19.17;48.97
53550;BME280;67273;52.914;-0.982;2023-05-18T02:52:38;102465.72;;;19.17;48.96
53550;BME280;67273;52.914;-0.982;2023-05-18T02:55:06;102462.16;;;19.17;48.97
53550;BME280;67273;52.914;-0.982;2023-05-18T02:57:55;102464.03;;;19.16;48.83
53550;BME280;67273;52.914;-0.982;2023-05-18T03:00:29;102459.63;;;19.15;48.96
53550;BME280;67273;52.914;-0.982;2023-05-18T03:02:58;102459.63;;;19.15;48.96
53550;BME280;67273;52.914;-0.982;2023-05-18T03:05:28;102465.09;;;19.15;48.99
53550;BME280;67273;52.914;-0.982;2023-05-18T03:07:56;102466.94;;;19.15;48.88
53550;BME280;67273;52.914;-0.982;2023-05-18T03:10:22;102464.22;;;19.15;48.96
53550;BME280;67273;52.914;-0.982;2023-05-18T03:12:48;102459.81;;;19.14;48.83
53550;BME280;67273;52.914;-0.982;2023-05-18T03:15:16;102463.38;;;19.14;49.03
53550;BME280;67273;52.914;-0.982;2023-05-18T03:17:46;102462.56;;;19.14;48.97
53550;BME280;67273;52.914;-0.982;2023-05-18T03:20:14;102460.84;;;19.13;48.95
53550;BME280;67273;52.914;-0.982;2023-05-18T03:22:42;102467.16;;;19.13;48.86
53550;BME280;67273;52.914;-0.982;2023-05-18T03:25:08;102465.47;;;19.12;48.87
53550;BME280;67273;52.914;-0.982;2023-05-18T03:27:35;102467.16;;;19.13;48.94
53550;BME280;67273;52.914;-0.982;2023-05-18T03:30:04;102463.78;;;19.11;49.05
53550;BME280;67273;52.914;-0.982;2023-05-18T03:32:30;102470.09;;;19.12;48.96
53550;BME280;67273;52.914;-0.982;2023-05-18T03:34:59;102463.78;;;19.11;48.95
53550;BME280;67273;52.914;-0.982;2023-05-18T03:37:26;102465.66;;;19.11;48.98
53550;BME280;67273;52.914;-0.982;2023-05-18T03:39:53;102467.56;;;19.10;48.92
53550;BME280;67273;52.914;-0.982;2023-05-18T03:42:22;102462.09;;;19.10;49.02
53550;BME280;67273;52.914;-0.982;2023-05-18T03:44:49;102470.28;;;19.10;48.83
53550;BME280;67273;52.914;-0.982;2023-05-18T03:47:16;102462.09;;;19.10;48.87
53550;BME280;67273;52.914;-0.982;2023-05-18T03:49:43;102465.03;;;19.09;48.93
53550;BME280;67273;52.914;-0.982;2023-05-18T03:52:09;102465.84;;;19.09;48.91
53550;BME280;67273;52.914;-0.982;2023-05-18T03:54:36;102473.19;;;19.09;48.93
53550;BME280;67273;52.914;-0.982;2023-05-18T03:57:04;102465.03;;;19.09;49.02
53550;BME280;67273;52.914;-0.982;2023-05-18T03:59:29;102469.63;;;19.08;48.77
53550;BME280;67273;52.914;-0.982;2023-05-18T04:01:57;102475.91;;;19.09;48.87
53550;BME280;67273;52.914;-0.982;2023-05-18T04:04:27;102475.09;;;19.08;49.02
53550;BME280;67273;52.914;-0.982;2023-05-18T04:06:55;102473.41;;;19.07;48.91
53550;BME280;67273;52.914;-0.982;2023-05-18T04:09:22;102473.41;;;19.07;48.96
53550;BME280;67273;52.914;-0.982;2023-05-18T04:11:49;102474.22;;;19.08;48.92
53550;BME280;67273;52.914;-0.982;2023-05-18T04:14:16;102467.13;;;19.07;48.91
53550;BME280;67273;52.914;-0.982;2023-05-18T04:16:43;102471.72;;;19.06;48.91
53550;BME280;67273;52.914;-0.982;2023-05-18T04:19:13;102475.28;;;19.07;49.01
53550;BME280;67273;52.914;-0.982;2023-05-18T04:21:42;102472.56;;;19.07;49.05
53550;BME280;67273;52.914;-0.982;2023-05-18T04:24:10;102467.31;;;19.05;48.61
53550;BME280;67273;52.914;-0.982;2023-05-18T04:26:39;102473.59;;;19.06;48.96
53550;BME280;67273;52.914;-0.982;2023-05-18T04:29:07;102479.03;;;19.06;49.04
53550;BME280;67273;52.914;-0.982;2023-05-18T04:31:38;102472.75;;;19.05;48.96
53550;BME280;67273;52.914;-0.982;2023-05-18T04:34:09;102473.78;;;19.04;48.99
53550;BME280;67273;52.914;-0.982;2023-05-18T04:36:39;102472.75;;;19.05;48.91
53550;BME280;67273;52.914;-0.982;2023-05-18T04:39:08;102478.41;;;19.04;48.94
53550;BME280;67273;52.914;-0.982;2023-05-18T04:41:34;102478.41;;;19.04;48.92
53550;BME280;67273;52.914;-0.982;2023-05-18T04:44:01;102472.94;;;19.04;48.96
53550;BME280;67273;52.914;-0.982;2023-05-18T04:46:30;102476.50;;;19.04;48.87
53550;BME280;67273;52.914;-0.982;2023-05-18T04:49:00;102477.56;;;19.03;49.02
53550;BME280;67273;52.914;-0.982;2023-05-18T04:51:31;102471.06;;;19.04;48.94
53550;BME280;67273;52.914;-0.982;2023-05-18T04:54:01;102483.84;;;19.04;48.78
53550;BME280;67273;52.914;-0.982;2023-05-18T04:56:28;102488.47;;;19.03;48.94
53550;BME280;67273;52.914;-0.982;2023-05-18T04:58:56;102479.41;;;19.03;48.91
53550;BME280;67273;52.914;-0.982;2023-05-18T05:01:26;102493.91;;;19.03;48.98
53550;BME280;67273;52.914;-0.982;2023-05-18T05:03:53;102489.28;;;19.04;48.97
53550;BME280;67273;52.914;-0.982;2023-05-18T05:06:20;102489.28;;;19.04;49.02
53550;BME280;67273;52.914;-0.982;2023-05-18T05:08:46;102485.72;;;19.03;48.90
53550;BME280;67273;52.914;-0.982;2023-05-18T05:11:12;102488.47;;;19.03;48.91
53550;BME280;67273;52.914;-0.982;2023-05-18T05:13:37;102485.72;;;19.03;48.92
53550;BME280;67273;52.914;-0.982;2023-05-18T05:16:03;102488.47;;;19.03;48.91
53550;BME280;67273;52.914;-0.982;2023-05-18T05:18:30;102491.19;;;19.03;48.92
53550;BME280;67273;52.914;-0.982;2023-05-18T05:20:57;102492.00;;;19.04;48.94
53550;BME280;67273;52.914;-0.982;2023-05-18T05:23:26;102488.47;;;19.03;48.85
53550;BME280;67273;52.914;-0.982;2023-05-18T05:25:52;102495.56;;;19.04;48.94
53550;BME280;67273;52.914;-0.982;2023-05-18T05:28:19;102492.00;;;19.04;48.93
53550;BME280;67273;52.914;-0.982;2023-05-18T05:30:46;102498.28;;;19.04;48.91
53550;BME280;67273;52.914;-0.982;2023-05-18T05:33:12;102492.84;;;19.04;48.87
53550;BME280;67273;52.914;-0.982;2023-05-18T05:35:38;102495.56;;;19.04;48.86
53550;BME280;67273;52.914;-0.982;2023-05-18T05:38:03;102490.13;;;19.04;48.91
53550;BME280;67273;52.914;-0.982;2023-05-18T05:40:32;102490.13;;;19.04;48.83
53550;BME280;67273;52.914;-0.982;2023-05-18T05:43:01;102484.69;;;19.04;48.85
53550;BME280;67273;52.914;-0.982;2023-05-18T05:45:29;102492.66;;;19.06;48.90
53550;BME280;67273;52.914;-0.982;2023-05-18T05:47:58;102489.94;;;19.06;48.83
53550;BME280;67273;52.914;-0.982;2023-05-18T05:50:25;102488.06;;;19.06;48.84
53550;BME280;67273;52.914;-0.982;2023-05-18T05:52:57;102487.22;;;19.06;48.78
53550;BME280;67273;52.914;-0.982;2023-05-18T05:55:27;102491.81;;;19.05;48.75
53550;BME280;67273;52.914;-0.982;2023-05-18T05:57:57;102488.06;;;19.06;48.70
53550;BME280;67273;52.914;-0.982;2023-05-18T06:00:25;102488.06;;;19.06;48.85
53550;BME280;67273;52.914;-0.982;2023-05-18T06:03:00;102486.63;;;19.10;48.78
53550;BME280;67273;52.914;-0.982;2023-05-18T06:05:32;102490.63;;;19.14;48.68
53550;BME280;67273;52.914;-0.982;2023-05-18T06:07:58;102488.53;;;19.16;48.53
53550;BME280;67273;52.914;-0.982;2023-05-18T06:10:24;102493.81;;;19.18;48.50
53550;BME280;67273;52.914;-0.982;2023-05-18T06:12:50;102495.31;;;19.21;48.48
53550;BME280;67273;52.914;-0.982;2023-05-18T06:15:17;102487.56;;;19.24;48.46
53550;BME280;67273;52.914;-0.982;2023-05-18T06:17:44;102489.69;;;19.29;48.48
53550;BME280;67273;52.914;-0.982;2023-05-18T06:20:12;102488.47;;;19.31;48.42
53550;BME280;67273;52.914;-0.982;2023-05-18T06:22:38;102487.22;;;19.34;48.31
53550;BME280;67273;52.914;-0.982;2023-05-18T06:25:16;102489.53;;;19.37;48.38
53550;BME280;67273;52.914;-0.982;2023-05-18T06:28:02;102487.44;;;19.39;48.20
53550;BME280;67273;52.914;-0.982;2023-05-18T06:30:41;102485.38;;;19.41;48.24
53550;BME280;67273;52.914;-0.982;2023-05-18T06:33:24;102492.50;;;19.42;48.42
53550;BME280;67273;52.914;-0.982;2023-05-18T06:35:50;102490.03;;;19.47;48.69
53550;BME280;67273;52.914;-0.982;2023-05-18T06:38:16;102495.47;;;19.47;48.72
53550;BME280;67273;52.914;-0.982;2023-05-18T06:40:42;102488.34;;;19.46;48.69
53550;BME280;67273;52.914;-0.982;2023-05-18T06:43:08;102491.06;;;19.46;48.78
53550;BME280;67273;52.914;-0.982;2023-05-18T06:45:50;102491.91;;;19.47;48.72
53550;BME280;67273;52.914;-0.982;2023-05-18T06:48:29;102497.16;;;19.48;48.72
53550;BME280;67273;52.914;-0.982;2023-05-18T06:50:55;102499.88;;;19.48;48.54
53550;BME280;67273;52.914;-0.982;2023-05-18T06:53:21;102492.34;;;19.50;48.60
53550;BME280;67273;52.914;-0.982;2023-05-18T06:55:48;102499.00;;;19.41;49.25
53550;BME280;67273;52.914;-0.982;2023-05-18T06:58:13;102495.88;;;19.44;49.21
53550;BME280;67273;52.914;-0.982;2023-05-18T07:00:39;102503.66;;;19.47;49.29
53550;BME280;67273;52.914;-0.982;2023-05-18T07:03:08;102498.84;;;19.49;49.29
53550;BME280;67273;52.914;-0.982;2023-05-18T07:05:34;102506.84;;;19.51;49.14
53550;BME280;67273;52.914;-0.982;2023-05-18T07:08:00;102500.50;;;19.50;49.14
53550;BME280;67273;52.914;-0.982;2023-05-18T07:10:27;102503.91;;;19.52;49.17
53550;BME280;67273;52.914;-0.982;2023-05-18T07:12:53;102518.19;;;19.54;49.10
53550;BME280;67273;52.914;-0.982;2023-05-18T07:15:19;102509.38;;;19.52;49.07
53550;BME280;67273;52.914;-0.982;2023-05-18T07:17:45;102510.19;;;19.53;49.13
53550;BME280;67273;52.914;-0.982;2023-05-18T07:20:12;102498.47;;;19.52;48.99
53550;BME280;67273;52.914;-0.982;2023-05-18T07:22:37;102497.41;;;19.53;48.97
53550;BME280;67273;52.914;-0.982;2023-05-18T07:25:04;102500.13;;;19.53;48.92
53550;BME280;67273;52.914;-0.982;2023-05-18T07:27:30;102498.22;;;19.54;48.97
53550;BME280;67273;52.914;-0.982;2023-05-18T07:29:57;102502.84;;;19.53;48.89
53550;BME280;67273;52.914;-0.982;2023-05-18T07:32:23;102504.53;;;19.54;48.77
53550;BME280;67273;52.914;-0.982;2023-05-18T07:34:49;102507.28;;;19.54;48.77
53550;BME280;67273;52.914;-0.982;2023-05-18T07:37:16;102503.47;;;19.55;48.75
53550;BME280;67273;52.914;-0.982;2023-05-18T07:39:41;102498.03;;;19.55;48.74
53550;BME280;67273;52.914;-0.982;2023-05-18T07:42:07;102499.94;;;19.55;48.57
53550;BME280;67273;52.914;-0.982;2023-05-18T07:44:33;102503.47;;;19.55;48.85
53550;BME280;67273;52.914;-0.982;2023-05-18T07:46:59;102504.34;;;19.56;48.68
53550;BME280;67273;52.914;-0.982;2023-05-18T07:49:25;102493.63;;;19.54;48.66
53550;BME280;67273;52.914;-0.982;2023-05-18T07:51:50;102502.47;;;19.56;48.67
53550;BME280;67273;52.914;-0.982;2023-05-18T07:54:18;102505.19;;;19.56;48.69
53550;BME280;67273;52.914;-0.982;2023-05-18T07:56:43;102501.41;;;19.57;48.45
53550;BME280;67273;52.914;-0.982;2023-05-18T07:59:09;102491.56;;;19.56;48.67
53550;BME280;67273;52.914;-0.982;2023-05-18T08:01:35;102497.84;;;19.57;48.63
53550;BME280;67273;52.914;-0.982;2023-05-18T08:04:02;102490.50;;;19.57;48.66
53550;BME280;67273;52.914;-0.982;2023-05-18T08:06:28;102495.94;;;19.57;48.46
53550;BME280;67273;52.914;-0.982;2023-05-18T08:08:54;102501.41;;;19.57;48.60
53550;BME280;67273;52.914;-0.982;2023-05-18T08:11:22;102507.72;;;19.58;48.57
53550;BME280;67273;52.914;-0.982;2023-05-18T08:13:48;102508.53;;;19.59;48.47
53550;BME280;67273;52.914;-0.982;2023-05-18T08:16:14;102509.56;;;19.57;48.50
53550;BME280;67273;52.914;-0.982;2023-05-18T08:18:40;102501.41;;;19.57;48.15
53550;BME280;67273;52.914;-0.982;2023-05-18T08:21:06;102501.41;;;19.57;48.45
53550;BME280;67273;52.914;-0.982;2023-05-18T08:23:33;102494.28;;;19.56;48.43
53550;BME280;67273;52.914;-0.982;2023-05-18T08:25:59;102502.25;;;19.58;48.44
53550;BME280;67273;52.914;-0.982;2023-05-18T08:28:28;102505.81;;;19.59;48.48
53550;BME280;67273;52.914;-0.982;2023-05-18T08:30:53;102500.38;;;19.59;48.47
53550;BME280;67273;52.914;-0.982;2023-05-18T08:33:20;102495.94;;;19.57;48.29
53550;BME280;67273;52.914;-0.982;2023-05-18T08:35:45;102495.94;;;19.57;48.44
53550;BME280;67273;52.914;-0.982;2023-05-18T08:38:11;102495.94;;;19.57;48.49
53550;BME280;67273;52.914;-0.982;2023-05-18T08:40:42;102493.22;;;19.57;48.51
53550;BME280;67273;52.914;-0.982;2023-05-18T08:43:14;102501.41;;;19.57;48.38
53550;BME280;67273;52.914;-0.982;2023-05-18T08:45:47;102490.50;;;19.57;48.31
53550;BME280;67273;52.914;-0.982;2023-05-18T08:48:14;102495.94;;;19.57;48.42
53550;BME280;67273;52.914;-0.982;2023-05-18T08:50:40;102497.63;;;19.59;48.15
53550;BME280;67273;52.914;-0.982;2023-05-18T08:53:09;102497.00;;;19.56;48.31
53550;BME280;67273;52.914;-0.982;2023-05-18T08:55:36;102495.94;;;19.57;48.15
53550;BME280;67273;52.914;-0.982;2023-05-18T08:58:02;102495.09;;;19.57;48.33
53550;BME280;67273;52.914;-0.982;2023-05-18T09:00:29;102493.22;;;19.57;48.26
53550;BME280;67273;52.914;-0.982;2023-05-18T09:02:56;102493.22;;;19.57;48.03
53550;BME280;67273;52.914;-0.982;2023-05-18T09:05:23;102493.44;;;19.56;48.39
53550;BME280;67273;52.914;-0.982;2023-05-18T09:07:48;102489.84;;;19.55;48.32
53550;BME280;67273;52.914;-0.982;2023-05-18T09:10:14;102484.19;;;19.57;48.15
53550;BME280;67273;52.914;-0.982;2023-05-18T09:12:41;102491.56;;;19.56;48.14
53550;BME280;67273;52.914;-0.982;2023-05-18T09:15:09;102489.03;;;19.55;48.16
53550;BME280;67273;52.914;-0.982;2023-05-18T09:17:35;102485.25;;;19.56;48.24
53550;BME280;67273;52.914;-0.982;2023-05-18T09:20:03;102486.28;;;19.55;48.22
53550;BME280;67273;52.914;-0.982;2023-05-18T09:22:31;102482.53;;;19.56;48.22
53550;BME280;67273;52.914;-0.982;2023-05-18T09:24:57;102474.56;;;19.54;48.17
53550;BME280;67273;52.914;-0.982;2023-05-18T09:27:23;102478.13;;;19.55;48.19
53550;BME280;67273;52.914;-0.982;2023-05-18T09:29:52;102476.22;;;19.55;48.16
53550;BME280;67273;52.914;-0.982;2023-05-18T09:32:19;102474.56;;;19.54;48.20
53550;BME280;67273;52.914;-0.982;2023-05-18T09:34:45;102478.94;;;19.55;48.06
53550;BME280;67273;52.914;-0.982;2023-05-18T09:37:16;102477.91;;;19.56;48.08
53550;BME280;67273;52.914;-0.982;2023-05-18T09:39:42;102478.56;;;19.59;47.77
53550;BME280;67273;52.914;-0.982;2023-05-18T09:42:08;102467.66;;;19.59;48.55
53550;BME280;67273;52.914;-0.982;2023-05-18T09:44:34;102467.00;;;19.56;48.58
53550;BME280;67273;52.914;-0.982;2023-05-18T09:47:00;102469.75;;;19.56;48.55
53550;BME280;67273;52.914;-0.982;2023-05-18T09:49:28;102465.31;;;19.55;48.43
53550;BME280;67273;52.914;-0.982;2023-05-18T09:51:54;102462.59;;;19.55;48.52
53550;BME280;67273;52.914;-0.982;2023-05-18T09:54:22;102468.03;;;19.55;48.42
53550;BME280;67273;52.914;-0.982;2023-05-18T09:56:48;102465.31;;;19.55;48.49
53550;BME280;67273;52.914;-0.982;2023-05-18T09:59:14;102459.88;;;19.55;48.29
53550;BME280;67273;52.914;-0.982;2023-05-18T10:02:03;102460.94;;;19.54;48.47
53550;BME280;67273;52.914;-0.982;2023-05-18T10:04:34;102459.88;;;19.55;48.32
53550;BME280;67273;52.914;-0.982;2023-05-18T10:07:00;102462.59;;;19.55;48.33
53550;BME280;67273;52.914;-0.982;2023-05-18T10:09:29;102462.59;;;19.55;48.34
53550;BME280;67273;52.914;-0.982;2023-05-18T10:11:56;102459.03;;;19.55;48.28
53550;BME280;67273;52.914;-0.982;2023-05-18T10:14:23;102465.31;;;19.55;48.35
53550;BME280;67273;52.914;-0.982;2023-05-18T10:16:50;102465.31;;;19.55;48.25
53550;BME280;67273;52.914;-0.982;2023-05-18T10:19:17;102462.59;;;19.55;48.24
53550;BME280;67273;52.914;-0.982;2023-05-18T10:21:43;102462.59;;;19.55;48.27
53550;BME280;67273;52.914;-0.982;2023-05-18T10:24:11;102454.41;;;19.55;48.28
53550;BME280;67273;52.914;-0.982;2023-05-18T10:26:42;102455.28;;;19.56;48.35
53550;BME280;67273;52.914;-0.982;2023-05-18T10:29:09;102454.41;;;19.55;48.28
53550;BME280;67273;52.914;-0.982;2023-05-18T10:31:36;102454.41;;;19.55;48.28
53550;BME280;67273;52.914;-0.982;2023-05-18T10:34:03;102457.13;;;19.55;47.95
53550;BME280;67273;52.914;-0.982;2023-05-18T10:36:30;102454.41;;;19.55;48.37
53550;BME280;67273;52.914;-0.982;2023-05-18T10:39:01;102459.88;;;19.55;48.29
53550;BME280;67273;52.914;-0.982;2023-05-18T10:41:29;102450.03;;;19.54;48.28
53550;BME280;67273;52.914;-0.982;2023-05-18T10:43:57;102443.50;;;19.55;48.17
53550;BME280;67273;52.914;-0.982;2023-05-18T10:46:28;102445.19;;;19.56;48.27
53550;BME280;67273;52.914;-0.982;2023-05-18T10:48:54;102439.75;;;19.56;48.29
53550;BME280;67273;52.914;-0.982;2023-05-18T10:51:22;102446.03;;;19.57;48.25
53550;BME280;67273;52.914;-0.982;2023-05-18T10:53:49;102446.88;;;19.57;48.33
53550;BME280;67273;52.914;-0.982;2023-05-18T10:56:15;102447.94;;;19.56;48.12
53550;BME280;67273;52.914;-0.982;2023-05-18T10:58:41;102451.50;;;19.57;48.24
53550;BME280;67273;52.914;-0.982;2023-05-18T11:01:10;102451.50;;;19.57;48.38
53550;BME280;67273;52.914;-0.982;2023-05-18T11:03:38;102451.50;;;19.57;48.28
53550;BME280;67273;52.914;-0.982;2023-05-18T11:06:07;102451.28;;;19.59;48.25
53550;BME280;67273;52.914;-0.982;2023-05-18T11:08:41;102454.66;;;19.61;48.49
53550;BME280;67273;52.914;-0.982;2023-05-18T11:11:08;102450.91;;;19.62;48.54
53550;BME280;67273;52.914;-0.982;2023-05-18T11:13:35;102452.75;;;19.61;48.48
53550;BME280;67273;52.914;-0.982;2023-05-18T11:16:06;102453.63;;;19.62;48.48
53550;BME280;67273;52.914;-0.982;2023-05-18T11:18:43;102460.75;;;19.63;48.29
53550;BME280;67273;52.914;-0.982;2023-05-18T11:21:29;102460.75;;;19.63;48.41
53550;BME280;67273;52.914;-0.982;2023-05-18T11:24:13;102467.88;;;19.64;48.35
53550;BME280;67273;52.914;-0.982;2023-05-18T11:26:41;102456.97;;;19.64;48.36
53550;BME280;67273;52.914;-0.982;2023-05-18T11:29:15;102456.97;;;19.64;48.50
53550;BME280;67273;52.914;-0.982;2023-05-18T11:31:45;102464.09;;;19.65;48.44
53550;BME280;67273;52.914;-0.982;2023-05-18T11:34:38;102457.63;;;19.66;48.34
53550;BME280;67273;52.914;-0.982;2023-05-18T11:37:05;102456.59;;;19.67;48.37
53550;BME280;67273;52.914;-0.982;2023-05-18T11:39:31;102453.00;;;19.66;48.46
53550;BME280;67273;52.914;-0.982;2023-05-18T11:42:01;102456.59;;;19.67;48.45
53550;BME280;67273;52.914;-0.982;2023-05-18T11:44:29;102458.25;;;19.68;48.38
53550;BME280;67273;52.914;-0.982;2023-05-18T11:47:01;102452.78;;;19.68;48.36
53550;BME280;67273;52.914;-0.982;2023-05-18T11:49:29;102452.78;;;19.68;48.37
53550;BME280;67273;52.914;-0.982;2023-05-18T11:52:01;102451.75;;;19.69;48.63
53550;BME280;67273;52.914;-0.982;2023-05-18T11:54:29;102447.97;;;19.70;48.42
53550;BME280;67273;52.914;-0.982;2023-05-18T11:56:57;102445.25;;;19.70;48.39
53550;BME280;67273;52.914;-0.982;2023-05-18T11:59:31;102449.66;;;19.71;48.25
53550;BME280;67273;52.914;-0.982;2023-05-18T12:01:59;102445.91;;;19.72;48.26
53550;BME280;67273;52.914;-0.982;2023-05-18T12:04:26;102445.03;;;19.71;48.37
53550;BME280;67273;52.914;-0.982;2023-05-18T12:06:52;102440.47;;;19.72;48.28
53550;BME280;67273;52.914;-0.982;2023-05-18T12:09:20;102434.16;;;19.71;48.47
53550;BME280;67273;52.914;-0.982;2023-05-18T12:11:46;102442.13;;;19.73;48.34
53550;BME280;67273;52.914;-0.982;2023-05-18T12:14:12;102439.41;;;19.73;48.28
53550;BME280;67273;52.914;-0.982;2023-05-18T12:16:39;102436.66;;;19.73;48.18
53550;BME280;67273;52.914;-0.982;2023-05-18T12:19:06;102441.13;;;19.74;48.21
53550;BME280;67273;52.914;-0.982;2023-05-18T12:21:34;102437.34;;;19.75;48.36
53550;BME280;67273;52.914;-0.982;2023-05-18T12:24:00;102425.59;;;19.74;48.27
53550;BME280;67273;52.914;-0.982;2023-05-18T12:26:28;102431.69;;;19.77;48.28
53550;BME280;67273;52.914;-0.982;2023-05-18T12:28:54;102428.13;;;19.76;48.13
53550;BME280;67273;52.914;-0.982;2023-05-18T12:31:20;102425.41;;;19.76;48.40
53550;BME280;67273;52.914;-0.982;2023-05-18T12:33:46;102425.19;;;19.78;48.23
53550;BME280;67273;52.914;-0.982;2023-05-18T12:36:12;102425.19;;;19.78;48.21
53550;BME280;67273;52.914;-0.982;2023-05-18T12:38:38;102417.00;;;19.78;48.35
53550;BME280;67273;52.914;-0.982;2023-05-18T12:41:04;102421.41;;;19.79;48.33
53550;BME280;67273;52.914;-0.982;2023-05-18T12:43:33;102423.94;;;19.80;48.44
53550;BME280;67273;52.914;-0.982;2023-05-18T12:46:00;102423.09;;;19.80;48.32